createdAt,value
2018-05-11T00:00:24.877Z,10.23
2018-05-11T00:02:53.740Z,11.20
2018-05-11T00:05:22.491Z,12.20
2018-05-11T00:07:50.865Z,8.10
2018-05-11T00:10:21.336Z,10.80
2018-05-11T00:12:50.144Z,8.87
2018-05-11T00:15:18.763Z,8.63
2018-05-11T00:17:47.672Z,8.70
2018-05-11T00:20:16.518Z,12.87
2018-05-11T00:22:44.811Z,9.40
2018-05-11T00:25:13.991Z,8.43
2018-05-11T00:27:43.044Z,15.03
2018-05-11T00:30:11.331Z,9.50
2018-05-11T00:32:40.128Z,13.37
2018-05-11T00:35:08.915Z,9.90
2018-05-11T00:37:38.170Z,10.53
2018-05-11T00:40:07.950Z,9.43
2018-05-11T00:42:36.232Z,9.53
2018-05-11T00:45:05.236Z,13.50
2018-05-11T00:47:33.983Z,11.30
2018-05-11T00:50:03.255Z,10.90
2018-05-11T00:52:31.578Z,9.90
2018-05-11T00:55:17.550Z,9.13
2018-05-11T00:57:46.372Z,10.47
2018-05-11T01:00:14.559Z,9.70
2018-05-11T01:02:42.901Z,11.03
2018-05-11T01:05:11.223Z,10.17
2018-05-11T01:07:40.454Z,11.27
2018-05-11T01:10:09.625Z,12.67
2018-05-11T01:12:39.237Z,8.03
2018-05-11T01:15:08.048Z,9.63
2018-05-11T01:17:36.901Z,12.50
2018-05-11T01:20:05.238Z,10.03
2018-05-11T01:22:33.325Z,7.77
2018-05-11T01:25:02.080Z,8.47
2018-05-11T01:27:30.376Z,12.07
2018-05-11T01:29:58.660Z,10.93
2018-05-11T01:32:27.527Z,8.67
2018-05-11T01:34:55.776Z,8.47
2018-05-11T01:37:24.132Z,10.43
2018-05-11T01:39:52.502Z,11.97
2018-05-11T01:42:21.265Z,13.67
2018-05-11T01:44:50.952Z,11.57
2018-05-11T01:47:19.864Z,8.30
2018-05-11T01:49:48.175Z,9.57
2018-05-11T01:52:16.384Z,11.60
2018-05-11T01:54:45.186Z,9.30
2018-05-11T01:57:14.071Z,9.73
2018-05-11T01:59:42.871Z,8.30
2018-05-11T02:02:11.656Z,10.63
2018-05-11T02:04:40.461Z,10.67
2018-05-11T02:07:09.332Z,9.10
2018-05-11T02:09:37.520Z,10.03
2018-05-11T02:12:05.803Z,9.20
2018-05-11T02:14:35.535Z,11.20
2018-05-11T02:17:03.932Z,8.77
2018-05-11T02:19:32.212Z,8.80
2018-05-11T02:22:01.970Z,8.63
2018-05-11T02:24:30.768Z,11.30
2018-05-11T02:26:59.744Z,13.00
2018-05-11T02:29:27.962Z,11.10
2018-05-11T02:31:56.706Z,10.77
2018-05-11T02:34:25.925Z,10.90
2018-05-11T02:36:54.709Z,13.40
2018-05-11T02:39:23.004Z,11.83
2018-05-11T02:41:51.871Z,10.53
2018-05-11T02:44:20.217Z,10.33
2018-05-11T02:46:49.049Z,12.37
2018-05-11T02:49:17.261Z,10.83
2018-05-11T02:51:45.509Z,10.20
2018-05-11T02:54:14.254Z,9.33
2018-05-11T02:56:43.065Z,10.70
2018-05-11T02:59:11.865Z,10.40
2018-05-11T03:01:39.944Z,12.90
2018-05-11T03:04:08.224Z,13.77
2018-05-11T03:06:36.517Z,11.60
2018-05-11T03:09:04.773Z,14.30
2018-05-11T03:11:36.545Z,14.03
2018-05-11T03:14:05.708Z,13.07
2018-05-11T03:16:34.560Z,10.93
2018-05-11T03:19:03.423Z,13.27
2018-05-11T03:21:31.636Z,13.90
2018-05-11T03:23:59.809Z,12.20
2018-05-11T03:26:28.843Z,13.17
2018-05-11T03:28:57.285Z,11.87
2018-05-11T03:31:27.712Z,15.10
2018-05-11T03:33:57.299Z,14.50
2018-05-11T03:36:26.140Z,14.43
2018-05-11T03:38:54.453Z,12.67
2018-05-11T03:41:22.786Z,12.50
2018-05-11T03:43:51.590Z,12.77
2018-05-11T03:46:20.364Z,12.20
2018-05-11T03:48:48.459Z,13.00
2018-05-11T03:51:17.251Z,13.80
2018-05-11T03:53:45.503Z,10.07
2018-05-11T03:56:14.236Z,13.03
2018-05-11T03:58:42.957Z,14.27
2018-05-11T04:01:29.404Z,12.67
2018-05-11T04:04:17.558Z,14.10
2018-05-11T04:07:04.215Z,16.77
2018-05-11T04:09:36.511Z,15.50
2018-05-11T04:12:05.823Z,12.73
2018-05-11T04:14:34.083Z,14.37
2018-05-11T04:17:02.456Z,10.80
2018-05-11T04:19:31.947Z,13.40
2018-05-11T04:22:00.754Z,11.93
2018-05-11T04:24:29.023Z,13.23
2018-05-11T04:26:57.913Z,12.50
2018-05-11T04:29:26.643Z,10.80
2018-05-11T04:31:56.028Z,13.77
2018-05-11T04:34:24.319Z,14.50
2018-05-11T04:36:53.399Z,15.07
2018-05-11T04:39:21.640Z,14.93
2018-05-11T04:41:50.648Z,13.03
2018-05-11T04:44:19.434Z,19.27
2018-05-11T04:46:48.243Z,13.77
2018-05-11T04:49:16.528Z,15.90
2018-05-11T04:51:45.701Z,15.37
2018-05-11T04:54:14.463Z,17.90
2018-05-11T04:56:43.692Z,22.73
2018-05-11T04:59:12.488Z,16.00
2018-05-11T05:01:40.751Z,16.27
2018-05-11T05:04:09.083Z,22.13
2018-05-11T05:06:37.308Z,18.10
2018-05-11T05:09:06.828Z,34.90
2018-05-11T05:11:35.608Z,38.10
2018-05-11T05:14:03.906Z,35.80
2018-05-11T05:16:32.196Z,26.60
2018-05-11T05:19:00.440Z,27.00
2018-05-11T05:21:28.644Z,28.47
2018-05-11T05:23:56.880Z,26.63
2018-05-11T05:26:28.659Z,22.47
2018-05-11T05:28:56.992Z,21.73
2018-05-11T05:31:26.116Z,25.97
2018-05-11T05:33:54.908Z,28.00
2018-05-11T05:36:23.686Z,28.87
2018-05-11T05:38:51.976Z,25.53
2018-05-11T05:41:22.288Z,25.13
2018-05-11T05:43:51.084Z,28.50
2018-05-11T05:46:21.482Z,25.10
2018-05-11T05:48:51.128Z,30.47
2018-05-11T05:51:19.408Z,34.40
2018-05-11T05:53:48.192Z,26.40
2018-05-11T05:56:17.888Z,62.27
2018-05-11T05:58:46.710Z,32.27
2018-05-11T06:01:15.030Z,32.60
2018-05-11T06:03:43.901Z,28.80
2018-05-11T06:06:12.937Z,33.20
2018-05-11T06:08:41.265Z,32.90
2018-05-11T06:11:09.767Z,36.33
2018-05-11T06:13:38.909Z,42.23
2018-05-11T06:16:08.504Z,43.03
2018-05-11T06:18:37.400Z,41.63
2018-05-11T06:21:05.513Z,40.03
2018-05-11T06:23:33.621Z,38.40
2018-05-11T06:26:05.121Z,34.80
2018-05-11T06:28:34.624Z,42.80
2018-05-11T06:31:02.836Z,46.27
2018-05-11T06:33:31.013Z,46.87
2018-05-11T06:36:00.084Z,49.07
2018-05-11T06:38:29.100Z,47.93
2018-05-11T06:40:57.219Z,49.00
2018-05-11T06:43:25.965Z,44.03
2018-05-11T06:45:55.629Z,49.90
2018-05-11T06:48:24.967Z,42.17
2018-05-11T06:50:54.580Z,39.60
2018-05-11T06:53:24.602Z,41.97
2018-05-11T06:55:53.712Z,75.87
2018-05-11T06:58:23.348Z,45.43
2018-05-11T07:00:52.139Z,40.23
2018-05-11T07:03:20.462Z,36.50
2018-05-11T07:05:51.174Z,43.63
2018-05-11T07:08:19.459Z,40.83
2018-05-11T07:10:47.671Z,39.20
2018-05-11T07:13:17.192Z,45.30
2018-05-11T07:15:45.482Z,50.03
2018-05-11T07:18:15.238Z,42.60
2018-05-11T07:20:44.733Z,39.87
2018-05-11T07:23:13.113Z,34.07
2018-05-11T07:25:41.492Z,35.20
2018-05-11T07:28:13.216Z,32.47
2018-05-11T07:30:41.921Z,27.53
2018-05-11T07:35:44.350Z,30.57
2018-05-11T07:38:14.032Z,32.13
2018-05-11T07:40:42.296Z,37.37
2018-05-11T07:43:13.690Z,51.17
2018-05-11T07:45:41.765Z,31.00
2018-05-11T07:48:10.020Z,39.47
2018-05-11T07:50:39.376Z,30.90
2018-05-11T07:53:10.216Z,28.47
2018-05-11T07:55:38.960Z,35.47
2018-05-11T07:58:07.821Z,31.37
2018-05-11T08:00:36.723Z,36.40
2018-05-11T08:03:09.487Z,37.00
2018-05-11T08:05:37.831Z,39.83
2018-05-11T08:08:06.116Z,40.50
2018-05-11T08:10:35.200Z,37.20
2018-05-11T08:13:04.088Z,50.77
2018-05-11T08:15:32.364Z,34.40
2018-05-11T08:18:02.026Z,39.87
2018-05-11T08:20:30.873Z,36.17
2018-05-11T08:22:59.604Z,39.30
2018-05-11T08:25:28.533Z,42.60
2018-05-11T08:27:57.887Z,36.20
2018-05-11T08:30:26.772Z,34.50
2018-05-11T08:32:55.383Z,31.50
2018-05-11T08:35:24.466Z,28.83
2018-05-11T08:37:53.143Z,34.20
2018-05-11T08:40:21.219Z,32.93
2018-05-11T08:42:49.319Z,37.70
2018-05-11T08:45:18.476Z,37.33
2018-05-11T08:47:46.588Z,29.17
2018-05-11T08:50:15.707Z,37.23
2018-05-11T08:52:44.204Z,37.53
2018-05-11T08:55:12.764Z,31.17
2018-05-11T08:57:41.469Z,43.30
2018-05-11T09:00:10.946Z,32.97
2018-05-11T09:02:39.842Z,35.83
2018-05-11T09:05:08.009Z,31.33
2018-05-11T09:07:37.037Z,30.00
2018-05-11T09:10:05.836Z,36.77
2018-05-11T09:12:37.216Z,33.97
2018-05-11T09:15:05.574Z,31.00
2018-05-11T09:17:33.883Z,30.80
2018-05-11T09:20:03.183Z,43.30
2018-05-11T09:22:33.893Z,31.30
2018-05-11T09:25:02.881Z,28.40
2018-05-11T09:27:31.278Z,32.50
2018-05-11T09:30:00.386Z,26.50
2018-05-11T09:32:31.000Z,25.70
2018-05-11T09:34:59.236Z,29.27
2018-05-11T09:37:27.510Z,29.77
2018-05-11T09:39:56.324Z,34.83
2018-05-11T09:42:25.308Z,28.43
2018-05-11T09:44:55.080Z,26.50
2018-05-11T09:47:24.133Z,35.50
2018-05-11T09:49:53.421Z,26.53
2018-05-11T09:52:21.914Z,25.47
2018-05-11T09:54:51.451Z,23.90
2018-05-11T09:57:20.301Z,31.67
2018-05-11T09:59:50.122Z,27.10
2018-05-11T10:02:18.445Z,27.80
2018-05-11T10:04:46.742Z,37.70
2018-05-11T10:07:15.636Z,29.57
2018-05-11T10:09:44.532Z,25.03
2018-05-11T10:12:12.960Z,24.23
2018-05-11T10:14:44.308Z,21.77
2018-05-11T10:17:12.556Z,23.77
2018-05-11T10:19:41.208Z,23.23
2018-05-11T10:22:10.132Z,22.93
2018-05-11T10:24:39.036Z,20.70
2018-05-11T10:27:07.358Z,28.53
2018-05-11T10:29:36.188Z,22.10
2018-05-11T10:32:08.588Z,29.60
2018-05-11T10:34:36.859Z,33.20
2018-05-11T10:37:06.244Z,20.77
2018-05-11T10:39:35.069Z,27.27
2018-05-11T10:42:03.941Z,23.90
2018-05-11T10:44:34.952Z,24.20
2018-05-11T10:47:03.740Z,28.50
2018-05-11T10:49:32.050Z,23.33
2018-05-11T10:52:00.291Z,21.53
2018-05-11T10:54:29.105Z,20.03
2018-05-11T10:56:58.147Z,21.37
2018-05-11T10:59:26.260Z,25.33
2018-05-11T11:01:55.036Z,20.70
2018-05-11T11:04:24.165Z,20.40
2018-05-11T11:06:52.443Z,19.70
2018-05-11T11:09:20.756Z,22.73
2018-05-11T11:11:49.537Z,28.30
2018-05-11T11:14:19.207Z,19.03
2018-05-11T11:16:50.644Z,16.60
2018-05-11T11:19:19.463Z,20.93
2018-05-11T11:21:48.212Z,23.10
2018-05-11T11:24:16.996Z,18.60
2018-05-11T11:26:46.602Z,17.07
2018-05-11T11:29:15.381Z,18.27
2018-05-11T11:31:45.193Z,22.70
2018-05-11T11:34:13.519Z,21.00
2018-05-11T11:36:42.636Z,24.77
2018-05-11T11:39:13.624Z,27.93
2018-05-11T11:41:42.287Z,22.57
2018-05-11T11:44:10.371Z,27.00
2018-05-11T11:46:39.201Z,22.23
2018-05-11T11:49:08.059Z,17.57
2018-05-11T11:51:38.029Z,16.53
2018-05-11T11:54:07.804Z,14.80
2018-05-11T11:56:37.320Z,24.20
2018-05-11T11:59:07.488Z,14.87
2018-05-11T12:01:37.562Z,13.87
2018-05-11T12:04:07.384Z,16.17
2018-05-11T12:06:36.235Z,12.33
2018-05-11T12:09:05.099Z,17.90
2018-05-11T12:11:34.750Z,16.50
2018-05-11T12:14:03.481Z,12.53
2018-05-11T12:16:36.184Z,13.10
2018-05-11T12:19:05.035Z,14.53
2018-05-11T12:21:34.049Z,12.53
2018-05-11T12:24:02.808Z,14.90
2018-05-11T12:26:32.887Z,15.80
2018-05-11T12:29:01.145Z,14.30
2018-05-11T12:31:29.718Z,10.73
2018-05-11T12:33:59.380Z,15.00
2018-05-11T12:36:28.225Z,13.23
2018-05-11T12:38:59.412Z,7.80
2018-05-11T12:41:30.652Z,8.83
2018-05-11T12:44:03.542Z,10.40
2018-05-11T12:46:32.531Z,7.63
2018-05-11T12:49:01.445Z,21.13
2018-05-11T12:51:30.200Z,12.53
2018-05-11T12:53:59.036Z,17.63
2018-05-11T12:56:28.196Z,14.87
2018-05-11T12:58:56.951Z,5.73
2018-05-11T13:01:34.621Z,5.53
2018-05-11T13:04:05.291Z,10.33
2018-05-11T13:06:33.653Z,15.50
2018-05-11T13:09:01.936Z,4.33
2018-05-11T13:11:30.889Z,6.97
2018-05-11T13:14:00.654Z,6.63
2018-05-11T13:16:28.836Z,8.83
2018-05-11T13:18:56.964Z,4.97
2018-05-11T13:21:25.284Z,6.00
2018-05-11T13:23:54.032Z,5.87
2018-05-11T13:26:23.120Z,14.03
2018-05-11T13:28:52.784Z,5.40
2018-05-11T13:31:21.128Z,7.07
2018-05-11T13:33:49.966Z,5.40
2018-05-11T13:36:18.831Z,5.47
2018-05-11T13:38:47.923Z,4.23
2018-05-11T13:41:17.216Z,6.87
2018-05-11T13:43:47.248Z,5.57
2018-05-11T13:46:15.609Z,5.90
2018-05-11T13:48:44.601Z,6.73
2018-05-11T13:51:15.528Z,8.20
2018-05-11T13:53:46.025Z,3.80
2018-05-11T13:56:14.603Z,9.53
2018-05-11T13:58:42.853Z,3.73
2018-05-11T14:01:11.630Z,8.30
2018-05-11T14:03:41.241Z,9.17
2018-05-11T14:06:10.177Z,9.00
2018-05-11T14:08:38.937Z,5.00
2018-05-11T14:11:08.068Z,5.53
2018-05-11T14:13:37.728Z,4.27
2018-05-11T14:16:05.825Z,4.63
2018-05-11T14:18:37.912Z,5.73
2018-05-11T14:21:06.861Z,3.80
2018-05-11T14:23:37.087Z,5.17
2018-05-11T14:26:05.468Z,4.70
2018-05-11T14:28:33.579Z,6.47
2018-05-11T14:31:02.803Z,11.33
2018-05-11T14:33:31.121Z,3.87
2018-05-11T14:36:02.177Z,5.33
2018-05-11T14:38:32.074Z,5.00
2018-05-11T14:41:01.195Z,4.13
2018-05-11T14:43:30.426Z,4.33
2018-05-11T14:46:00.121Z,7.97
2018-05-11T14:48:28.287Z,5.70
2018-05-11T14:50:57.647Z,10.63
2018-05-11T14:53:26.440Z,6.50
2018-05-11T14:55:55.360Z,5.40
2018-05-11T14:58:26.688Z,4.30
2018-05-11T15:00:55.578Z,6.33
2018-05-11T15:03:24.040Z,3.53
2018-05-11T15:05:52.839Z,3.03
2018-05-11T15:08:24.300Z,7.03
2018-05-11T15:10:53.716Z,5.83
2018-05-11T15:13:22.052Z,5.30
2018-05-11T15:15:51.187Z,5.67
2018-05-11T15:18:21.076Z,8.00
2018-05-11T15:20:49.873Z,7.30
2018-05-11T15:23:19.235Z,5.17
2018-05-11T15:25:48.887Z,4.67
2018-05-11T15:28:17.885Z,5.13
2018-05-11T15:30:46.460Z,4.17
2018-05-11T15:33:18.776Z,7.50
2018-05-11T15:35:47.644Z,7.63
2018-05-11T15:38:15.936Z,9.10
2018-05-11T15:40:44.787Z,9.37
2018-05-11T15:43:14.097Z,3.50
2018-05-11T15:45:43.771Z,5.23
2018-05-11T15:48:12.537Z,5.90
2018-05-11T15:50:42.241Z,6.57
2018-05-11T15:53:11.352Z,5.57
2018-05-11T15:55:40.981Z,4.60
2018-05-11T15:58:09.486Z,6.60
2018-05-11T16:00:37.744Z,6.50
2018-05-11T16:03:06.653Z,3.83
2018-05-11T16:05:35.611Z,5.37
2018-05-11T16:08:04.818Z,2.67
2018-05-11T16:10:33.658Z,3.73
2018-05-11T16:13:02.742Z,7.00
2018-05-11T16:15:31.528Z,5.43
2018-05-11T16:18:00.018Z,4.13
2018-05-11T16:20:28.259Z,4.87
2018-05-11T16:22:56.500Z,7.07
2018-05-11T16:25:24.906Z,10.60
2018-05-11T16:27:53.655Z,5.90
2018-05-11T16:30:22.495Z,5.53
2018-05-11T16:32:50.799Z,6.27
2018-05-11T16:35:22.328Z,4.60
2018-05-11T16:37:51.264Z,4.63
2018-05-11T16:40:20.208Z,5.73
2018-05-11T16:42:49.271Z,11.97
2018-05-11T16:45:18.374Z,7.37
2018-05-11T16:47:47.073Z,9.77
2018-05-11T16:50:15.911Z,5.83
2018-05-11T16:52:43.992Z,4.80
2018-05-11T16:55:12.362Z,7.57
2018-05-11T16:57:40.710Z,9.43
2018-05-11T17:00:09.882Z,5.93
2018-05-11T17:02:42.459Z,7.50
2018-05-11T17:05:11.370Z,4.97
2018-05-11T17:07:39.575Z,4.57
2018-05-11T17:10:10.040Z,6.03
2018-05-11T17:12:38.515Z,8.20
2018-05-11T17:15:07.293Z,3.90
2018-05-11T17:17:36.228Z,5.03
2018-05-11T17:20:04.465Z,4.87
2018-05-11T17:22:33.558Z,5.20
2018-05-11T17:25:02.564Z,5.90
2018-05-11T17:27:31.429Z,6.30
2018-05-11T17:30:01.295Z,5.00
2018-05-11T17:32:30.959Z,3.63
2018-05-11T17:34:59.832Z,6.63
2018-05-11T17:37:29.739Z,7.63
2018-05-11T17:39:58.061Z,4.57
2018-05-11T17:42:27.692Z,4.10
2018-05-11T17:44:56.503Z,3.97
2018-05-11T17:47:25.096Z,6.70
2018-05-11T17:49:53.987Z,4.77
2018-05-11T17:52:22.965Z,6.60
2018-05-11T17:54:52.725Z,8.40
2018-05-11T17:57:21.713Z,7.50
2018-05-11T18:02:38.446Z,3.40
2018-05-11T18:05:06.724Z,6.83
2018-05-11T18:07:34.964Z,4.97
2018-05-11T18:10:03.435Z,4.37
2018-05-11T18:12:32.565Z,4.53
2018-05-11T18:15:01.414Z,8.40
2018-05-11T18:17:29.593Z,6.27
2018-05-11T18:19:58.333Z,6.60
2018-05-11T18:22:27.372Z,7.20
2018-05-11T18:24:55.714Z,8.07
2018-05-11T18:27:28.556Z,6.97
2018-05-11T18:29:57.474Z,15.83
2018-05-11T18:32:25.833Z,5.70
2018-05-11T18:34:54.590Z,10.10
2018-05-11T18:37:23.388Z,6.13
2018-05-11T18:39:52.209Z,9.20
2018-05-11T18:42:20.592Z,7.63
2018-05-11T18:44:48.921Z,11.97
2018-05-11T18:47:17.859Z,8.63
2018-05-11T18:49:46.974Z,9.60
2018-05-11T18:52:17.176Z,13.23
2018-05-11T18:54:46.097Z,13.80
2018-05-11T18:57:14.856Z,11.40
2018-05-11T18:59:43.633Z,26.67
2018-05-11T19:02:12.032Z,61.67
2018-05-11T19:04:40.509Z,14.83
2018-05-11T19:07:08.829Z,13.13
2018-05-11T19:09:37.641Z,12.97
2018-05-11T19:12:05.949Z,12.40
2018-05-11T19:14:34.164Z,35.90
2018-05-11T19:17:03.239Z,28.50
2018-05-11T19:19:32.557Z,11.93
2018-05-11T19:22:05.349Z,19.63
2018-05-11T19:24:36.397Z,10.87
2018-05-11T19:27:05.751Z,14.53
2018-05-11T19:29:38.196Z,14.80
2018-05-11T19:32:07.330Z,9.97
2018-05-11T19:34:39.837Z,14.83
2018-05-11T19:37:10.367Z,12.50
2018-05-11T19:39:39.176Z,97.83
2018-05-11T19:42:08.080Z,32.37
2018-05-11T19:44:36.956Z,30.00
2018-05-11T19:47:15.909Z,18.80
2018-05-11T19:49:44.772Z,20.90
2018-05-11T19:52:14.483Z,12.93
2018-05-11T19:54:42.626Z,36.03
2018-05-11T19:57:11.836Z,15.20
2018-05-11T19:59:40.034Z,10.57
2018-05-11T20:02:13.792Z,7.80
2018-05-11T20:04:43.904Z,7.00
2018-05-11T20:07:13.630Z,49.37
2018-05-11T20:09:47.437Z,50.57
2018-05-11T20:12:17.928Z,11.40
2018-05-11T20:14:48.688Z,41.93
2018-05-11T20:17:17.835Z,25.80
2018-05-11T20:19:49.346Z,9.63
2018-05-11T20:22:19.224Z,9.80
2018-05-11T20:24:48.098Z,8.00
2018-05-11T20:27:17.245Z,10.23
2018-05-11T20:29:49.008Z,24.13
2018-05-11T20:32:19.099Z,12.23
2018-05-11T20:34:50.113Z,7.43
2018-05-11T20:37:20.848Z,9.97
2018-05-11T20:39:49.183Z,10.33
2018-05-11T20:42:21.023Z,20.47
2018-05-11T20:44:49.911Z,58.47
2018-05-11T20:47:23.567Z,43.40
2018-05-11T20:49:59.749Z,34.13
2018-05-11T20:52:28.830Z,14.03
2018-05-11T20:55:00.734Z,12.90
2018-05-11T20:57:34.355Z,44.23
2018-05-11T21:00:04.040Z,48.67
2018-05-11T21:02:32.462Z,14.97
2018-05-11T21:05:02.227Z,20.07
2018-05-11T21:07:31.477Z,80.80
2018-05-11T21:10:00.432Z,15.20
2018-05-11T21:12:29.269Z,9.30
2018-05-11T21:14:58.077Z,92.13
2018-05-11T21:17:27.177Z,40.30
2018-05-11T21:19:55.505Z,15.93
2018-05-11T21:25:26.840Z,7.57
2018-05-11T21:27:55.424Z,18.67
2018-05-11T21:30:23.501Z,33.60
2018-05-11T21:32:51.727Z,11.50
2018-05-11T21:35:20.087Z,10.97
2018-05-11T21:37:49.047Z,10.63
2018-05-11T21:40:17.387Z,12.73
2018-05-11T21:42:46.272Z,5.20
2018-05-11T21:45:14.747Z,8.80
2018-05-11T21:47:43.107Z,7.33
2018-05-11T21:50:13.588Z,10.00
2018-05-11T21:52:41.830Z,8.60
2018-05-11T21:55:10.632Z,10.80
2018-05-11T21:57:39.106Z,11.40
2018-05-11T22:00:07.284Z,7.37
2018-05-11T22:02:35.468Z,8.50
2018-05-11T22:05:04.268Z,11.57
2018-05-11T22:07:32.340Z,5.80
2018-05-11T22:10:00.877Z,9.27
2018-05-11T22:12:32.369Z,12.57
2018-05-11T22:15:01.945Z,6.30
2018-05-11T22:17:30.779Z,7.80
2018-05-11T22:19:59.776Z,7.70
2018-05-11T22:22:27.953Z,10.27
2018-05-11T22:24:56.401Z,8.47
2018-05-11T22:27:25.188Z,8.40
2018-05-11T22:29:53.980Z,7.17
2018-05-11T22:32:22.277Z,9.07
2018-05-11T22:34:51.359Z,12.40
2018-05-11T22:37:21.723Z,8.40
2018-05-11T22:39:50.144Z,11.20
2018-05-11T22:42:18.448Z,7.90
2018-05-11T22:44:47.286Z,6.40
2018-05-11T22:47:16.348Z,7.40
2018-05-11T22:49:44.948Z,5.27
2018-05-11T22:52:14.024Z,8.13
2018-05-11T22:54:42.361Z,8.90
2018-05-11T22:57:12.068Z,10.97
2018-05-11T22:59:40.496Z,8.30
2018-05-11T23:02:11.353Z,12.33
2018-05-11T23:04:40.184Z,10.33
2018-05-11T23:07:12.265Z,6.20
2018-05-11T23:09:40.610Z,10.10
2018-05-11T23:12:09.412Z,6.43
2018-05-11T23:14:38.005Z,12.80
2018-05-11T23:17:06.091Z,8.10
2018-05-11T23:19:35.093Z,6.67
2018-05-11T23:22:03.428Z,6.63
2018-05-11T23:24:32.247Z,8.00
2018-05-11T23:27:00.542Z,8.57
2018-05-11T23:29:28.828Z,5.90
2018-05-11T23:31:57.157Z,7.50
2018-05-11T23:34:26.056Z,6.70
2018-05-11T23:36:54.871Z,9.10
2018-05-11T23:39:22.971Z,9.30
2018-05-11T23:41:51.180Z,6.00
2018-05-11T23:44:19.528Z,5.80
2018-05-11T23:46:48.084Z,9.90
2018-05-11T23:49:16.824Z,10.73
2018-05-11T23:51:45.687Z,7.50
2018-05-11T23:54:13.984Z,6.93
2018-05-11T23:56:43.632Z,10.00
2018-05-11T23:59:12.612Z,8.03
